createdAt,value
2023-05-07T00:00:10.796Z,1.30
2023-05-07T00:02:39.366Z,1.10
2023-05-07T00:05:08.637Z,1.20
2023-05-07T00:07:37.005Z,1.10
2023-05-07T00:10:05.421Z,1.40
2023-05-07T00:12:34.627Z,1.30
2023-05-07T00:15:04.469Z,1.20
2023-05-07T00:17:32.483Z,1.20
2023-05-07T00:20:00.780Z,1.00
2023-05-07T00:22:31.137Z,1.23
2023-05-07T00:24:59.097Z,1.20
2023-05-07T00:27:27.012Z,1.23
2023-05-07T00:29:54.923Z,1.10
2023-05-07T00:32:24.173Z,1.00
2023-05-07T00:34:55.266Z,1.23
2023-05-07T00:37:23.192Z,1.10
2023-05-07T00:39:51.130Z,1.13
2023-05-07T00:42:19.210Z,1.00
2023-05-07T00:44:47.392Z,0.90
2023-05-07T00:47:16.036Z,1.00
2023-05-07T00:49:46.096Z,1.20
2023-05-07T00:52:17.870Z,1.00
2023-05-07T00:54:45.747Z,1.10
2023-05-07T00:57:13.678Z,1.23
2023-05-07T00:59:41.763Z,0.90
2023-05-07T01:02:09.735Z,1.03
2023-05-07T01:04:37.752Z,1.23
2023-05-07T01:07:07.280Z,1.10
2023-05-07T01:09:36.238Z,0.97
2023-05-07T01:12:04.397Z,1.10
2023-05-07T01:14:33.968Z,1.10
2023-05-07T01:17:02.043Z,1.00
2023-05-07T01:19:31.291Z,1.10
2023-05-07T01:22:04.448Z,1.10
2023-05-07T01:24:37.067Z,1.20
2023-05-07T01:27:06.415Z,1.10
2023-05-07T01:29:36.152Z,1.17
2023-05-07T01:32:04.154Z,1.00
2023-05-07T01:34:33.790Z,0.90
2023-05-07T01:37:01.780Z,1.17
2023-05-07T01:39:30.319Z,1.00
2023-05-07T01:41:59.609Z,1.03
2023-05-07T01:44:27.845Z,1.20
2023-05-07T01:46:55.978Z,1.00
2023-05-07T01:49:23.880Z,0.90
2023-05-07T01:51:53.526Z,1.10
2023-05-07T01:54:21.543Z,0.90
2023-05-07T01:56:49.911Z,1.10
2023-05-07T01:59:19.236Z,1.07
2023-05-07T02:01:47.205Z,1.10
2023-05-07T02:04:18.315Z,1.10
2023-05-07T02:06:46.439Z,0.90
2023-05-07T02:09:16.080Z,0.90
2023-05-07T02:11:47.858Z,1.00
2023-05-07T02:14:16.373Z,1.00
2023-05-07T02:16:45.779Z,1.10
2023-05-07T02:19:15.556Z,0.87
2023-05-07T02:21:43.810Z,1.10
2023-05-07T02:24:11.757Z,1.10
2023-05-07T02:26:39.651Z,1.07
2023-05-07T02:29:07.615Z,0.93
2023-05-07T02:31:35.881Z,0.90
2023-05-07T02:34:05.353Z,1.10
2023-05-07T02:36:33.354Z,1.10
2023-05-07T02:39:07.232Z,1.00
2023-05-07T02:41:35.275Z,0.80
2023-05-07T02:44:03.226Z,1.00
2023-05-07T02:46:31.525Z,1.10
2023-05-07T02:49:08.162Z,1.00
2023-05-07T02:51:36.404Z,1.07
2023-05-07T02:54:08.465Z,1.00
2023-05-07T02:56:36.593Z,0.90
2023-05-07T02:59:04.514Z,0.90
2023-05-07T03:01:38.111Z,0.90
2023-05-07T03:04:09.851Z,0.90
2023-05-07T03:06:37.773Z,0.90
2023-05-07T03:09:05.786Z,1.00
2023-05-07T03:11:33.721Z,0.90
2023-05-07T03:14:01.729Z,1.07
2023-05-07T03:16:29.790Z,0.87
2023-05-07T03:18:57.834Z,1.10
2023-05-07T03:21:27.780Z,1.00
2023-05-07T03:23:55.806Z,0.90
2023-05-07T03:26:23.709Z,1.10
2023-05-07T03:28:51.657Z,0.93
2023-05-07T03:31:19.671Z,0.97
2023-05-07T03:33:53.950Z,0.90
2023-05-07T03:36:21.937Z,0.90
2023-05-07T03:38:54.345Z,1.00
2023-05-07T03:41:27.718Z,1.00
2023-05-07T03:43:57.943Z,0.90
2023-05-07T03:46:29.257Z,0.90
2023-05-07T03:48:57.467Z,0.90
2023-05-07T03:51:26.314Z,1.00
2023-05-07T03:53:57.999Z,1.07
2023-05-07T03:56:27.536Z,1.00
2023-05-07T03:58:56.664Z,0.80
2023-05-07T04:01:24.637Z,0.80
2023-05-07T04:03:52.979Z,0.90
2023-05-07T04:06:21.727Z,0.97
2023-05-07T04:08:50.942Z,0.80
2023-05-07T04:11:21.314Z,1.00
2023-05-07T04:13:49.361Z,1.00
2023-05-07T04:16:21.645Z,0.80
2023-05-07T04:18:49.920Z,0.90
2023-05-07T04:21:18.694Z,1.10
2023-05-07T04:23:47.386Z,1.13
2023-05-07T04:26:15.705Z,0.80
2023-05-07T04:28:46.814Z,1.00
2023-05-07T04:31:16.363Z,0.90
2023-05-07T04:33:45.781Z,1.00
2023-05-07T04:36:16.211Z,0.90
2023-05-07T04:38:52.725Z,0.90
2023-05-07T04:41:21.718Z,0.90
2023-05-07T04:43:52.530Z,0.80
2023-05-07T04:46:23.046Z,0.90
2023-05-07T04:48:51.436Z,0.90
2023-05-07T04:51:19.406Z,1.00
2023-05-07T04:53:47.369Z,0.80
2023-05-07T04:56:15.297Z,0.90
2023-05-07T04:58:45.940Z,1.00
2023-05-07T05:01:15.430Z,1.10
2023-05-07T05:03:43.697Z,0.80
2023-05-07T05:06:12.081Z,0.80
2023-05-07T05:08:40.032Z,0.93
2023-05-07T05:11:07.980Z,0.70
2023-05-07T05:13:37.785Z,0.87
2023-05-07T05:16:21.232Z,0.80
2023-05-07T05:18:53.086Z,1.00
2023-05-07T05:21:21.272Z,0.90
2023-05-07T05:23:52.883Z,0.83
2023-05-07T05:26:23.528Z,0.90
2023-05-07T05:28:51.488Z,0.83
2023-05-07T05:31:23.907Z,0.90
2023-05-07T05:33:52.863Z,0.80
2023-05-07T05:36:20.964Z,1.00
2023-05-07T05:38:50.751Z,1.00
2023-05-07T05:41:19.233Z,0.90
2023-05-07T05:43:47.158Z,0.97
2023-05-07T05:46:15.723Z,0.90
2023-05-07T05:48:45.221Z,0.70
2023-05-07T05:51:13.612Z,0.90
2023-05-07T05:53:41.537Z,0.83
2023-05-07T05:56:09.959Z,0.87
2023-05-07T05:58:39.871Z,0.70
2023-05-07T06:01:09.420Z,0.80
2023-05-07T06:03:38.960Z,0.90
2023-05-07T06:06:15.468Z,0.73
2023-05-07T06:08:44.542Z,1.00
2023-05-07T06:11:15.599Z,1.00
2023-05-07T06:13:46.662Z,0.73
2023-05-07T06:16:14.654Z,0.83
2023-05-07T06:18:42.982Z,0.93
2023-05-07T06:21:14.916Z,0.80
2023-05-07T06:23:44.204Z,0.80
2023-05-07T06:26:12.492Z,1.00
2023-05-07T06:28:43.640Z,0.70
2023-05-07T06:31:15.569Z,0.70
2023-05-07T06:33:46.691Z,1.00
2023-05-07T06:36:15.643Z,0.90
2023-05-07T06:38:46.050Z,0.93
2023-05-07T06:41:14.060Z,0.70
2023-05-07T06:43:43.018Z,0.90
2023-05-07T06:46:35.855Z,0.90
2023-05-07T06:49:05.971Z,0.80
2023-05-07T06:51:33.955Z,0.90
2023-05-07T06:54:06.355Z,0.90
2023-05-07T06:56:36.764Z,0.80
2023-05-07T06:59:06.340Z,0.80
2023-05-07T07:01:38.560Z,0.80
2023-05-07T07:04:07.375Z,0.90
2023-05-07T07:06:37.641Z,0.90
2023-05-07T07:09:11.405Z,0.77
2023-05-07T07:11:39.416Z,0.80
2023-05-07T07:14:07.929Z,0.80
2023-05-07T07:16:42.037Z,0.80
2023-05-07T07:19:09.956Z,0.70
2023-05-07T07:21:38.468Z,0.70
2023-05-07T07:24:06.997Z,0.80
2023-05-07T07:26:36.555Z,0.80
2023-05-07T07:29:04.833Z,0.90
2023-05-07T07:31:33.093Z,0.83
2023-05-07T07:34:01.284Z,0.80
2023-05-07T07:36:38.957Z,0.77
2023-05-07T07:39:15.438Z,0.90
2023-05-07T07:41:45.238Z,0.90
2023-05-07T07:44:16.310Z,0.73
2023-05-07T07:46:47.632Z,0.73
2023-05-07T07:49:16.506Z,0.60
2023-05-07T07:51:45.525Z,0.90
2023-05-07T07:54:14.597Z,0.77
2023-05-07T07:56:44.831Z,0.77
2023-05-07T07:59:14.886Z,0.80
2023-05-07T08:01:43.435Z,0.60
2023-05-07T08:04:11.904Z,0.70
2023-05-07T08:06:43.148Z,0.80
2023-05-07T08:09:11.800Z,0.80
2023-05-07T08:11:42.095Z,0.80
2023-05-07T08:14:11.920Z,0.80
2023-05-07T08:16:39.920Z,0.70
2023-05-07T08:19:09.063Z,0.80
2023-05-07T08:21:40.350Z,0.87
2023-05-07T08:24:08.880Z,0.90
2023-05-07T08:26:39.940Z,0.70
2023-05-07T08:29:09.109Z,0.90
2023-05-07T08:31:39.607Z,0.80
2023-05-07T08:34:09.589Z,0.73
2023-05-07T08:36:42.692Z,0.80
2023-05-07T08:39:11.971Z,0.70
2023-05-07T08:41:40.084Z,0.80
2023-05-07T08:44:09.033Z,0.93
2023-05-07T08:46:38.426Z,0.70
2023-05-07T08:49:06.809Z,0.83
2023-05-07T08:51:34.839Z,0.70
2023-05-07T08:54:05.809Z,0.60
2023-05-07T08:56:35.033Z,0.80
2023-05-07T08:59:04.770Z,0.77
2023-05-07T09:01:32.958Z,0.90
2023-05-07T09:04:02.286Z,0.87
2023-05-07T09:06:32.139Z,0.90
2023-05-07T09:09:02.107Z,5.70
2023-05-07T09:11:31.596Z,2.30
2023-05-07T09:14:03.135Z,7.33
2023-05-07T09:16:36.387Z,1.43
2023-05-07T09:19:06.947Z,8.23
2023-05-07T09:21:35.614Z,6.50
2023-05-07T09:24:07.801Z,1.60
2023-05-07T09:26:40.459Z,2.60
2023-05-07T09:29:10.101Z,1.60
2023-05-07T09:31:39.255Z,3.47
2023-05-07T09:34:10.625Z,2.40
2023-05-07T09:36:42.210Z,2.17
2023-05-07T09:39:10.210Z,6.37
2023-05-07T09:41:45.704Z,5.97
2023-05-07T09:44:27.945Z,9.00
2023-05-07T09:46:58.232Z,3.83
2023-05-07T09:49:36.156Z,3.40
2023-05-07T09:52:09.658Z,1.67
2023-05-07T09:54:41.316Z,2.50
2023-05-07T09:57:09.783Z,2.70
2023-05-07T09:59:37.830Z,2.57
2023-05-07T10:02:09.421Z,2.80
2023-05-07T10:04:44.467Z,3.00
2023-05-07T10:07:12.449Z,2.10
2023-05-07T10:09:43.173Z,6.83
2023-05-07T10:12:22.206Z,2.40
2023-05-07T10:14:52.317Z,2.33
2023-05-07T10:17:22.256Z,2.00
2023-05-07T10:19:51.884Z,2.27
2023-05-07T10:22:20.662Z,2.47
2023-05-07T10:24:50.114Z,3.40
2023-05-07T10:27:19.830Z,2.10
2023-05-07T10:29:55.807Z,2.43
2023-05-07T10:32:37.030Z,4.10
2023-05-07T10:35:08.733Z,2.40
2023-05-07T10:37:37.127Z,4.03
2023-05-07T10:40:05.742Z,2.20
2023-05-07T10:42:33.998Z,2.07
2023-05-07T10:45:14.302Z,1.93
2023-05-07T10:48:27.874Z,2.17
2023-05-07T10:51:23.239Z,3.10
2023-05-07T10:54:29.754Z,1.90
2023-05-07T10:57:37.674Z,2.00
2023-05-07T11:00:43.185Z,2.10
2023-05-07T11:03:18.027Z,2.77
2023-05-07T11:06:13.878Z,6.53
2023-05-07T11:09:03.472Z,4.23
2023-05-07T11:11:47.879Z,4.47
2023-05-07T11:14:45.248Z,17.37
2023-05-07T11:17:22.777Z,13.17
2023-05-07T11:19:58.192Z,10.97
2023-05-07T11:22:46.420Z,5.63
2023-05-07T11:25:36.931Z,9.87
2023-05-07T11:28:23.993Z,3.03
2023-05-07T11:31:01.957Z,8.60
2023-05-07T11:33:30.023Z,3.77
2023-05-07T11:35:59.232Z,5.10
2023-05-07T11:38:36.189Z,3.90
2023-05-07T11:41:06.090Z,7.73
2023-05-07T11:43:34.176Z,7.70
2023-05-07T11:46:07.608Z,5.87
2023-05-07T11:48:35.572Z,5.00
2023-05-07T11:51:04.705Z,6.47
2023-05-07T11:53:37.775Z,2.73
2023-05-07T11:56:10.356Z,4.60
2023-05-07T11:58:38.540Z,2.90
2023-05-07T12:01:06.897Z,4.23
2023-05-07T12:03:36.520Z,5.13
2023-05-07T12:06:04.887Z,2.47
2023-05-07T12:08:32.770Z,2.50
2023-05-07T12:11:00.799Z,3.17
2023-05-07T12:13:30.030Z,2.87
2023-05-07T12:15:58.107Z,3.13
2023-05-07T12:18:28.605Z,2.53
2023-05-07T12:20:56.505Z,2.00
2023-05-07T12:23:24.535Z,2.30
2023-05-07T12:25:52.481Z,2.43
2023-05-07T12:28:20.870Z,2.10
2023-05-07T12:30:50.553Z,1.93
2023-05-07T12:33:18.845Z,2.17
2023-05-07T12:35:49.700Z,1.93
2023-05-07T12:38:18.433Z,2.27
2023-05-07T12:40:48.132Z,2.00
2023-05-07T12:43:19.720Z,1.87
2023-05-07T12:45:48.288Z,2.27
2023-05-07T12:48:17.503Z,2.23
2023-05-07T12:50:45.463Z,1.80
2023-05-07T12:53:14.113Z,1.77
2023-05-07T12:55:46.178Z,1.87
2023-05-07T12:58:18.661Z,1.73
2023-05-07T13:00:46.938Z,1.83
2023-05-07T13:03:22.809Z,1.73
2023-05-07T13:05:51.342Z,1.80
2023-05-07T13:08:26.759Z,2.10
2023-05-07T13:10:55.213Z,2.10
2023-05-07T13:13:23.399Z,1.60
2023-05-07T13:15:51.470Z,1.50
2023-05-07T13:18:19.605Z,1.90
2023-05-07T13:20:48.925Z,2.03
2023-05-07T13:23:16.805Z,1.70
2023-05-07T13:25:44.692Z,2.80
2023-05-07T13:28:12.957Z,3.60
2023-05-07T13:30:41.630Z,3.67
2023-05-07T13:33:09.562Z,1.93
2023-05-07T13:35:37.556Z,7.07
2023-05-07T13:38:06.857Z,2.93
2023-05-07T13:40:34.745Z,2.17
2023-05-07T13:43:03.127Z,2.00
2023-05-07T13:45:36.736Z,1.63
2023-05-07T13:48:05.080Z,2.37
2023-05-07T13:50:33.005Z,2.43
2023-05-07T13:53:00.949Z,2.13
2023-05-07T13:55:31.050Z,2.63
2023-05-07T13:57:59.092Z,2.27
2023-05-07T14:00:27.180Z,2.33
2023-05-07T14:02:55.328Z,2.50
2023-05-07T14:05:24.165Z,2.10
2023-05-07T14:07:52.747Z,2.00
2023-05-07T14:10:20.815Z,2.30
2023-05-07T14:12:50.173Z,2.83
2023-05-07T14:15:18.351Z,2.60
2023-05-07T14:17:48.373Z,2.70
2023-05-07T14:20:16.298Z,2.70
2023-05-07T14:22:47.286Z,2.60
2023-05-07T14:25:15.294Z,3.43
2023-05-07T14:27:47.466Z,3.20
2023-05-07T14:30:17.884Z,3.27
2023-05-07T14:32:45.921Z,3.07
2023-05-07T14:35:14.156Z,3.50
2023-05-07T14:37:42.303Z,3.40
2023-05-07T14:40:11.335Z,3.47
2023-05-07T14:42:39.478Z,3.20
2023-05-07T14:45:11.621Z,3.43
2023-05-07T14:47:41.153Z,3.13
2023-05-07T14:50:09.578Z,3.40
2023-05-07T14:52:39.792Z,3.73
2023-05-07T14:55:08.808Z,3.53
2023-05-07T14:57:36.888Z,3.87
2023-05-07T15:00:06.093Z,3.43
2023-05-07T15:02:34.102Z,3.67
2023-05-07T15:05:03.507Z,3.40
2023-05-07T15:07:33.528Z,3.87
2023-05-07T15:10:03.387Z,3.40
2023-05-07T15:12:31.337Z,3.70
2023-05-07T15:14:59.251Z,3.00
2023-05-07T15:17:27.275Z,3.10
2023-05-07T15:19:55.254Z,3.03
2023-05-07T15:22:24.491Z,2.83
2023-05-07T15:24:52.382Z,3.10
2023-05-07T15:27:20.487Z,2.97
2023-05-07T15:29:48.674Z,3.57
2023-05-07T15:32:16.562Z,2.97
2023-05-07T15:34:44.484Z,2.47
2023-05-07T15:37:13.626Z,2.60
2023-05-07T15:39:43.915Z,2.57
2023-05-07T15:42:11.780Z,2.33
2023-05-07T15:44:40.462Z,2.40
2023-05-07T15:47:09.059Z,3.33
2023-05-07T15:49:37.096Z,2.87
2023-05-07T15:52:05.235Z,2.70
2023-05-07T15:54:33.167Z,2.43
2023-05-07T15:57:04.228Z,4.10
2023-05-07T15:59:33.225Z,2.37
2023-05-07T16:02:01.197Z,2.43
2023-05-07T16:04:29.139Z,2.20
2023-05-07T16:06:57.096Z,2.03
2023-05-07T16:09:25.614Z,2.53
2023-05-07T16:11:53.516Z,2.23
2023-05-07T16:14:22.880Z,2.00
2023-05-07T16:16:50.921Z,1.83
2023-05-07T16:19:18.965Z,1.80
2023-05-07T16:21:47.100Z,1.97
2023-05-07T16:24:16.530Z,2.17
2023-05-07T16:26:44.476Z,1.77
2023-05-07T16:29:12.427Z,1.73
2023-05-07T16:31:41.727Z,1.73
2023-05-07T16:34:09.635Z,1.80
2023-05-07T16:36:37.894Z,1.90
2023-05-07T16:39:06.607Z,1.63
2023-05-07T16:41:34.488Z,1.87
2023-05-07T16:44:02.463Z,1.60
2023-05-07T16:46:30.429Z,1.60
2023-05-07T16:48:59.730Z,1.30
2023-05-07T16:51:27.891Z,1.50
2023-05-07T16:53:56.051Z,1.70
2023-05-07T16:56:24.005Z,1.40
2023-05-07T16:58:51.921Z,2.60
2023-05-07T17:01:21.663Z,1.50
2023-05-07T17:03:49.622Z,1.53
2023-05-07T17:06:18.948Z,1.57
2023-05-07T17:08:46.796Z,1.40
2023-05-07T17:11:14.714Z,1.60
2023-05-07T17:13:42.613Z,1.13
2023-05-07T17:16:10.562Z,1.57
2023-05-07T17:18:38.525Z,1.50
2023-05-07T17:21:08.980Z,1.40
2023-05-07T17:23:38.236Z,1.53
2023-05-07T17:26:12.092Z,1.30
2023-05-07T17:28:40.037Z,1.43
2023-05-07T17:31:09.262Z,1.63
2023-05-07T17:33:37.687Z,1.30
2023-05-07T17:36:06.209Z,1.20
2023-05-07T17:38:34.149Z,1.17
2023-05-07T17:41:03.439Z,1.33
2023-05-07T17:43:31.541Z,1.87
2023-05-07T17:45:59.481Z,1.30
2023-05-07T17:48:27.354Z,1.40
2023-05-07T17:50:55.252Z,1.43
2023-05-07T17:53:24.618Z,1.23
2023-05-07T17:55:54.712Z,1.47
2023-05-07T17:58:25.581Z,1.10
2023-05-07T18:00:54.359Z,1.10
2023-05-07T18:03:24.437Z,1.20
2023-05-07T18:05:52.434Z,1.30
2023-05-07T18:08:20.710Z,1.20
2023-05-07T18:10:48.622Z,1.30
2023-05-07T18:13:16.553Z,1.17
2023-05-07T18:15:47.774Z,1.03
2023-05-07T18:18:16.399Z,1.10
2023-05-07T18:20:44.471Z,1.10
2023-05-07T18:23:12.376Z,1.20
2023-05-07T18:25:43.220Z,1.17
2023-05-07T18:28:13.141Z,1.10
2023-05-07T18:30:41.044Z,1.17
2023-05-07T18:33:10.334Z,1.20
2023-05-07T18:35:38.489Z,1.10
2023-05-07T18:38:06.481Z,1.23
2023-05-07T18:40:34.493Z,1.10
2023-05-07T18:43:06.575Z,1.00
2023-05-07T18:45:34.699Z,1.10
2023-05-07T18:48:02.750Z,1.10
2023-05-07T18:50:32.337Z,1.30
2023-05-07T18:53:00.445Z,1.30
2023-05-07T18:55:28.635Z,1.20
2023-05-07T18:57:56.590Z,1.53
2023-05-07T19:00:24.723Z,1.00
2023-05-07T19:02:52.668Z,1.00
2023-05-07T19:05:20.733Z,1.00
2023-05-07T19:07:51.037Z,1.10
2023-05-07T19:10:19.229Z,1.10
2023-05-07T19:12:47.177Z,1.10
2023-05-07T19:15:18.194Z,0.90
2023-05-07T19:17:46.125Z,1.10
2023-05-07T19:20:14.587Z,1.10
2023-05-07T19:22:42.748Z,1.23
2023-05-07T19:25:12.360Z,1.20
2023-05-07T19:27:40.576Z,1.13
2023-05-07T19:30:12.073Z,1.00
2023-05-07T19:32:40.035Z,1.10
2023-05-07T19:35:08.595Z,1.10
2023-05-07T19:37:36.477Z,1.03
2023-05-07T19:40:06.419Z,1.00
2023-05-07T19:42:36.149Z,1.20
2023-05-07T19:45:04.938Z,1.17
2023-05-07T19:47:32.983Z,1.10
2023-05-07T19:50:01.448Z,0.90
2023-05-07T19:52:29.347Z,1.07
2023-05-07T19:54:57.245Z,1.10
2023-05-07T19:57:25.104Z,1.00
2023-05-07T19:59:54.352Z,0.93
2023-05-07T20:02:22.420Z,1.10
2023-05-07T20:04:50.407Z,1.30
2023-05-07T20:07:18.295Z,1.10
2023-05-07T20:09:46.209Z,0.90
2023-05-07T20:12:14.091Z,1.20
2023-05-07T20:14:42.202Z,1.10
2023-05-07T20:17:11.511Z,1.03
2023-05-07T20:19:39.458Z,1.20
2023-05-07T20:22:07.390Z,1.20
2023-05-07T20:24:38.188Z,1.07
2023-05-07T20:27:06.178Z,1.27
2023-05-07T20:29:34.162Z,1.20
2023-05-07T20:32:02.533Z,1.13
2023-05-07T20:34:32.252Z,1.10
2023-05-07T20:37:00.346Z,1.10
2023-05-07T20:39:28.261Z,1.40
2023-05-07T20:41:56.496Z,1.20
2023-05-07T20:44:24.432Z,1.00
2023-05-07T20:46:52.308Z,1.20
2023-05-07T20:49:21.229Z,1.20
2023-05-07T20:51:51.996Z,1.73
2023-05-07T20:54:19.924Z,1.60
2023-05-07T20:56:47.839Z,1.30
2023-05-07T20:59:16.220Z,1.17
2023-05-07T21:01:44.203Z,1.30
2023-05-07T21:04:12.241Z,1.23
2023-05-07T21:06:40.543Z,1.20
2023-05-07T21:09:09.844Z,1.17
2023-05-07T21:11:37.754Z,1.40
2023-05-07T21:14:05.688Z,1.20
2023-05-07T21:16:36.113Z,1.10
2023-05-07T21:19:04.065Z,1.10
2023-05-07T21:21:32.226Z,1.20
2023-05-07T21:24:00.102Z,1.17
2023-05-07T21:26:29.382Z,1.23
2023-05-07T21:28:57.659Z,1.40
2023-05-07T21:31:25.687Z,1.30
2023-05-07T21:33:54.121Z,1.33
2023-05-07T21:36:26.016Z,1.30
2023-05-07T21:38:53.956Z,1.47
2023-05-07T21:41:22.566Z,1.50
2023-05-07T21:43:52.167Z,1.43
2023-05-07T21:46:20.146Z,1.40
2023-05-07T21:48:48.111Z,1.20
2023-05-07T21:51:16.071Z,1.20
2023-05-07T21:53:43.985Z,1.33
2023-05-07T21:56:11.865Z,1.30
2023-05-07T21:58:39.832Z,1.30
2023-05-07T22:01:12.240Z,1.40
2023-05-07T22:03:41.128Z,1.40
2023-05-07T22:06:09.273Z,1.40
2023-05-07T22:08:37.165Z,1.40
2023-05-07T22:11:06.290Z,1.30
2023-05-07T22:13:34.176Z,1.43
2023-05-07T22:16:02.184Z,1.43
2023-05-07T22:18:31.492Z,1.40
2023-05-07T22:20:59.421Z,1.43
2023-05-07T22:23:29.161Z,1.50
2023-05-07T22:26:00.130Z,1.47
2023-05-07T22:28:28.142Z,1.50
2023-05-07T22:30:56.440Z,1.47
2023-05-07T22:33:24.356Z,1.30
2023-05-07T22:35:53.729Z,1.50
2023-05-07T22:38:21.599Z,1.37
2023-05-07T22:40:49.652Z,1.60
2023-05-07T22:43:17.522Z,1.40
2023-05-07T22:45:45.399Z,1.60
2023-05-07T22:48:13.328Z,2.30
2023-05-07T22:50:41.259Z,1.43
2023-05-07T22:53:10.536Z,1.30
2023-05-07T22:55:40.305Z,1.40
2023-05-07T22:58:08.229Z,1.33
2023-05-07T23:00:36.140Z,1.30
2023-05-07T23:03:04.299Z,1.37
2023-05-07T23:05:32.309Z,1.40
2023-05-07T23:08:03.859Z,1.40
2023-05-07T23:10:34.884Z,1.70
2023-05-07T23:13:02.987Z,1.40
2023-05-07T23:15:33.984Z,1.47
2023-05-07T23:18:01.964Z,1.40
2023-05-07T23:20:29.884Z,1.20
2023-05-07T23:22:57.864Z,1.20
2023-05-07T23:25:25.738Z,1.37
2023-05-07T23:27:57.593Z,1.40
2023-05-07T23:30:25.495Z,1.70
2023-05-07T23:32:53.501Z,1.40
2023-05-07T23:35:21.664Z,1.33
2023-05-07T23:37:49.602Z,1.50
2023-05-07T23:40:18.369Z,1.30
2023-05-07T23:42:46.264Z,1.20
2023-05-07T23:45:15.701Z,1.43
2023-05-07T23:47:43.667Z,1.50
2023-05-07T23:50:12.181Z,1.60
2023-05-07T23:52:40.219Z,1.53
2023-05-07T23:55:09.464Z,1.60
2023-05-07T23:57:37.333Z,1.50
